Time;durP1;ratioP1;P1;durP2;ratioP2;P2;SDS_P1;SDS_P2;PMS_P1;PMS_P2;Temp;Humidity;BMP_temperature;BMP_pressure;BME280_temperature;BME280_humidity;BME280_pressure;Samples;Min_cycle;Max_cycle;Signal;HPM_P1;HPM_P2
2022/05/11 00:00:48;;;;;;;17.87;5.50;;;;;;;11.52;62.37;101387.53;1733147;82;26002;-59
2022/05/11 00:03:16;;;;;;;12.15;5.10;;;;;;;11.53;62.41;101392.78;1743743;82;25801;-59
2022/05/11 00:05:43;;;;;;;13.53;6.05;;;;;;;11.56;62.16;101383.61;1742051;82;25781;-58
2022/05/11 00:08:10;;;;;;;14.90;5.42;;;;;;;11.58;62.29;101391.92;1741637;82;25474;-59
2022/05/11 00:10:37;;;;;;;13.58;5.17;;;;;;;11.59;62.42;101390.95;1741535;82;27473;-59
2022/05/11 00:13:05;;;;;;;10.70;5.00;;;;;;;11.62;62.65;101388.48;1741316;82;25784;-59
2022/05/11 00:15:32;;;;;;;17.60;4.87;;;;;;;11.65;62.79;101388.70;1741385;82;25720;-59
2022/05/11 00:18:00;;;;;;;16.52;5.00;;;;;;;11.64;62.60;101386.99;1741837;82;26679;-59
2022/05/11 00:20:27;;;;;;;11.60;4.45;;;;;;;11.65;62.43;101394.09;1741635;82;25805;-59
2022/05/11 00:22:58;;;;;;;14.25;5.92;;;;;;;11.65;62.56;101386.89;1741430;82;46399;-59
2022/05/11 00:25:27;;;;;;;11.10;5.42;;;;;;;11.63;62.31;101390.20;1741336;82;25464;-59
2022/05/11 00:27:56;;;;;;;15.30;5.42;;;;;;;11.62;62.46;101387.61;1741589;82;25811;-59
2022/05/11 00:30:26;;;;;;;18.25;6.05;;;;;;;11.62;62.64;101387.61;1741694;82;25966;-59
2022/05/11 00:32:56;;;;;;;11.12;4.72;;;;;;;11.58;62.49;101387.88;1759160;80;25833;-59
2022/05/11 00:35:26;;;;;;;9.40;5.42;;;;;;;11.57;62.43;101389.34;1780592;80;28376;-59
2022/05/11 00:37:53;;;;;;;12.37;4.92;;;;;;;11.54;62.29;101383.72;1779866;79;25648;-59
2022/05/11 00:40:23;;;;;;;8.95;4.97;;;;;;;11.53;62.15;101390.59;1780739;80;26160;-59
2022/05/11 00:42:52;;;;;;;10.20;4.42;;;;;;;11.51;62.21;101391.20;1780326;79;25844;-59
2022/05/11 00:45:20;;;;;;;11.95;5.45;;;;;;;11.46;62.05;101392.09;1770695;79;25684;-60
2022/05/11 00:47:52;;;;;;;17.85;5.37;;;;;;;11.40;62.35;101390.25;1727175;80;27476;-59
2022/05/11 00:50:23;;;;;;;13.20;5.65;;;;;;;11.34;62.56;101389.41;1741145;82;25479;-59
2022/05/11 00:52:58;;;;;;;14.68;4.72;;;;;;;11.30;62.45;101392.48;1738608;80;25511;-59
2022/05/11 00:55:35;;;;;;;10.50;4.45;;;;;;;11.26;62.54;101390.03;1741351;81;26529;-59
2022/05/11 00:58:27;;;;;;;18.07;5.53;;;;;;;11.22;62.62;101388.59;1707802;83;25730;-59
2022/05/11 01:00:54;;;;;;;14.03;4.60;;;;;;;11.18;63.26;101384.92;1708273;84;27332;-59
2022/05/11 01:03:30;;;;;;;13.38;5.05;;;;;;;11.16;62.90;101385.03;1707438;84;25768;-59
2022/05/11 01:05:59;;;;;;;13.65;5.40;;;;;;;11.18;62.82;101384.92;1715101;83;25762;-59
2022/05/11 01:08:28;;;;;;;12.15;5.47;;;;;;;11.13;63.03;101381.26;1709421;83;25801;-59
2022/05/11 01:10:56;;;;;;;10.23;5.50;;;;;;;11.10;63.10;101385.06;1708217;83;25745;-59
2022/05/11 01:13:23;;;;;;;11.97;6.33;;;;;;;11.12;63.17;101390.31;1708287;82;27476;-59
2022/05/11 01:15:52;;;;;;;12.00;5.25;;;;;;;11.10;63.40;101391.80;1708276;84;25514;-59
2022/05/11 01:18:23;;;;;;;12.75;4.60;;;;;;;11.14;63.62;101387.48;1708277;84;25840;-59
2022/05/11 01:20:49;;;;;;;13.53;4.80;;;;;;;11.16;64.17;101389.57;1708508;83;25770;-59
2022/05/11 01:23:40;;;;;;;9.70;4.70;;;;;;;11.18;64.24;101388.96;1708256;83;25728;-59
2022/05/11 01:26:07;;;;;;;11.55;4.60;;;;;;;11.16;64.24;101399.84;1707929;84;27502;-59
2022/05/11 01:28:44;;;;;;;15.10;4.85;;;;;;;11.18;64.17;101394.34;1708110;83;25778;-59
2022/05/11 01:31:13;;;;;;;9.85;4.58;;;;;;;11.23;64.41;101393.47;1708608;82;25714;-59
2022/05/11 01:33:45;;;;;;;12.60;4.53;;;;;;;11.26;64.39;101398.62;1701082;84;26367;-59
2022/05/11 01:36:29;;;;;;;16.45;4.35;;;;;;;11.30;64.36;101397.88;1700831;84;25921;-59
2022/05/11 01:39:03;;;;;;;14.75;5.17;;;;;;;11.33;64.21;101389.55;1700533;84;27651;-59
2022/05/11 01:41:37;;;;;;;22.50;5.70;;;;;;;11.38;64.37;101395.41;1702730;84;25728;-59
2022/05/11 01:44:14;;;;;;;12.60;4.65;;;;;;;11.40;64.20;101393.45;1708223;83;25766;-59
2022/05/11 01:46:49;;;;;;;12.85;4.75;;;;;;;11.41;64.37;101392.47;1703598;83;26051;-59
2022/05/11 01:49:18;;;;;;;10.18;4.60;;;;;;;11.42;64.18;101399.57;1699875;84;25852;-59
2022/05/11 01:51:45;;;;;;;10.13;4.22;;;;;;;11.43;64.23;101394.52;1700452;84;27520;-59
2022/05/11 01:54:14;;;;;;;11.30;5.17;;;;;;;11.43;64.17;101396.73;1700416;84;25698;-59
2022/05/11 01:56:41;;;;;;;11.93;5.10;;;;;;;11.39;64.10;101384.48;1700479;82;25793;-59
2022/05/11 01:59:07;;;;;;;13.08;4.42;;;;;;;11.38;63.77;101387.32;1700315;84;25957;-59
2022/05/11 02:01:39;;;;;;;12.20;4.60;;;;;;;11.33;63.52;101379.62;1700590;82;25961;-59
2022/05/11 02:07:49;;;;;;;13.85;4.22;;;;;;;11.32;63.39;101381.95;1700152;84;27640;-59
2022/05/11 02:09:19;;;;;;;11.80;4.53;;;;;;;11.25;63.17;101378.89;1732633;81;25883;-59
2022/05/11 02:11:46;;;;;;;11.05;5.05;;;;;;;11.18;62.94;101377.69;1733030;82;26757;-60
2022/05/11 02:14:13;;;;;;;14.63;3.90;;;;;;;11.10;63.11;101378.33;1733431;81;25813;-59
2022/05/11 02:16:39;;;;;;;11.20;4.87;;;;;;;10.99;62.94;101376.12;1732854;82;28177;-59
2022/05/11 02:19:06;;;;;;;15.48;5.42;;;;;;;10.91;63.00;101372.22;1733301;81;25978;-59
2022/05/11 02:21:33;;;;;;;11.95;4.47;;;;;;;10.86;63.01;101367.70;1733085;82;25768;-59
2022/05/11 02:23:59;;;;;;;14.80;5.62;;;;;;;10.79;62.95;101363.30;1733431;82;25808;-59
2022/05/11 02:26:27;;;;;;;10.18;4.65;;;;;;;10.74;63.15;101374.94;1732991;82;25726;-59
2022/05/11 02:28:55;;;;;;;11.50;4.83;;;;;;;10.68;63.13;101369.17;1733091;81;27480;-59
2022/05/11 02:31:22;;;;;;;10.85;5.10;;;;;;;10.63;63.12;101370.89;1734476;82;25784;-59
2022/05/11 02:33:50;;;;;;;12.25;4.78;;;;;;;10.57;63.15;101373.57;1773210;80;25665;-59
2022/05/11 02:36:16;;;;;;;12.65;5.62;;;;;;;10.51;63.37;101375.41;1775043;80;25806;-59
2022/05/11 02:38:43;;;;;;;25.48;6.42;;;;;;;10.46;63.40;101368.17;1775240;80;25733;-59
2022/05/11 02:41:11;;;;;;;17.67;4.55;;;;;;;10.43;63.46;101373.81;1767595;80;27482;-59
2022/05/11 02:43:38;;;;;;;12.65;4.97;;;;;;;10.41;63.60;101377.95;1714589;83;25826;-59
2022/05/11 02:46:05;;;;;;;21.00;5.60;;;;;;;10.38;63.74;101375.99;1720888;80;25484;-59
2022/05/11 02:48:33;;;;;;;8.40;4.00;;;;;;;10.37;63.91;101378.27;1732913;82;25807;-59
2022/05/11 02:51:00;;;;;;;13.22;5.03;;;;;;;10.36;64.19;101380.13;1733038;82;25781;-59
2022/05/11 02:53:29;;;;;;;17.55;4.80;;;;;;;10.39;64.31;101381.74;1732927;82;27450;-59
2022/05/11 02:55:57;;;;;;;14.10;4.42;;;;;;;10.40;64.62;101386.99;1732948;82;25840;-59
2022/05/11 02:58:28;;;;;;;15.25;4.67;;;;;;;10.42;64.65;101387.73;1733026;81;25816;-59
2022/05/11 03:00:59;;;;;;;20.00;5.28;;;;;;;10.45;64.85;101381.25;1733098;81;25794;-59
2022/05/11 03:03:33;;;;;;;14.80;5.03;;;;;;;10.47;65.13;101382.00;1733192;82;25516;-59
2022/05/11 03:05:56;;;;;;;13.65;4.42;;;;;;;10.46;65.05;101385.66;1733098;81;28312;-59
2022/05/11 03:08:23;;;;;;;12.20;4.20;;;;;;;10.49;64.95;101390.81;1732844;82;26037;-58
2022/05/11 03:10:49;;;;;;;11.43;4.83;;;;;;;10.51;65.10;101390.20;1733247;81;25806;-59
2022/05/11 03:13:17;;;;;;;13.58;5.17;;;;;;;10.54;65.03;101383.72;1732879;81;25798;-59
2022/05/11 03:15:44;;;;;;;14.73;5.03;;;;;;;10.56;65.21;101394.72;1732912;82;25724;-59
2022/05/11 03:18:12;;;;;;;12.98;5.40;;;;;;;10.52;64.87;101398.65;1733381;81;27655;-59
2022/05/11 03:20:39;;;;;;;17.67;6.03;;;;;;;10.51;65.24;101400.09;1733088;82;25733;-59
2022/05/11 03:23:06;;;;;;;19.73;5.90;;;;;;;10.52;65.25;101398.65;1732997;82;25728;-59
2022/05/11 03:25:33;;;;;;;18.60;6.25;;;;;;;10.55;65.35;101396.20;1733415;81;26726;-59
2022/05/11 03:28:01;;;;;;;16.67;5.60;;;;;;;10.56;65.19;101399.27;1733122;81;25736;-59
2022/05/11 03:30:28;;;;;;;19.57;7.05;;;;;;;10.55;64.94;101402.42;1733371;81;27607;-59
2022/05/11 03:35:42;;;;;;;17.48;6.28;;;;;;;10.51;64.86;101417.11;1775042;80;25459;-59
2022/05/11 03:38:09;;;;;;;21.70;6.75;;;;;;;10.51;65.15;101411.73;1775053;80;25806;-59
2022/05/11 03:40:37;;;;;;;22.07;7.05;;;;;;;10.50;64.91;101420.77;1775194;80;25699;-59
2022/05/11 03:43:05;;;;;;;16.05;6.55;;;;;;;10.48;64.75;101415.99;1731785;80;27536;-59
2022/05/11 03:45:32;;;;;;;20.52;7.33;;;;;;;10.45;64.73;101421.13;1727845;82;25937;-59
2022/05/11 03:47:59;;;;;;;14.00;5.42;;;;;;;10.44;64.62;101423.45;1732650;82;25689;-59
2022/05/11 03:50:27;;;;;;;17.77;6.22;;;;;;;10.43;64.87;101420.89;1732262;82;25800;-59
2022/05/11 03:52:57;;;;;;;17.65;6.55;;;;;;;10.42;64.96;101427.23;1732569;82;25704;-59
2022/05/11 03:55:26;;;;;;;15.25;6.47;;;;;;;10.37;65.44;101420.88;1732391;82;28257;-59
2022/05/11 03:57:53;;;;;;;16.10;6.05;;;;;;;10.36;65.37;101423.63;1732466;82;25555;-59
2022/05/11 04:00:24;;;;;;;20.35;7.15;;;;;;;10.36;65.39;101427.66;1732626;82;25659;-59
2022/05/11 04:02:53;;;;;;;24.92;6.33;;;;;;;10.37;65.45;101425.34;1732371;82;25786;-59
2022/05/11 04:05:21;;;;;;;23.18;7.17;;;;;;;10.38;65.68;101427.09;1732184;82;25856;-59
2022/05/11 04:07:48;;;;;;;21.90;7.22;;;;;;;10.39;65.70;101433.72;1727582;83;27583;-59
2022/05/11 04:10:17;;;;;;;21.80;7.35;;;;;;;10.43;65.65;101443.25;1727369;82;25806;-59
2022/05/11 04:12:45;;;;;;;27.60;8.73;;;;;;;10.48;65.77;101441.08;1727554;83;26419;-59
2022/05/11 04:15:13;;;;;;;24.07;8.13;;;;;;;10.54;66.04;101443.75;1727651;82;25789;-59
2022/05/11 04:17:41;;;;;;;20.95;7.25;;;;;;;10.62;66.46;101444.00;1727840;83;25910;-59
2022/05/11 04:20:14;;;;;;;19.48;8.30;;;;;;;10.72;66.60;101448.20;1727611;82;28185;-59
2022/05/11 04:22:41;;;;;;;17.48;7.05;;;;;;;10.82;66.51;101452.86;1727622;82;25750;-59
2022/05/11 04:25:10;;;;;;;25.88;7.60;;;;;;;10.92;66.68;101447.12;1727510;83;25776;-58
2022/05/11 04:27:37;;;;;;;18.77;8.05;;;;;;;10.99;66.47;101441.60;1728016;83;25889;-59
2022/05/11 04:30:06;;;;;;;26.02;8.55;;;;;;;11.10;66.24;101448.81;1727704;83;25820;-59
2022/05/11 04:32:33;;;;;;;27.22;8.50;;;;;;;11.24;66.47;101452.62;1735358;80;27495;-59
2022/05/11 04:35:00;;;;;;;27.02;7.53;;;;;;;11.35;66.15;101449.05;1730452;82;25946;-58
2022/05/11 04:37:27;;;;;;;20.77;7.70;;;;;;;11.41;65.63;101451.73;1732244;82;25466;-58
2022/05/11 04:39:54;;;;;;;26.02;7.33;;;;;;;11.47;65.41;101458.47;1730758;82;25762;-58
2022/05/11 04:42:21;;;;;;;22.32;8.23;;;;;;;11.47;64.97;101457.12;1734724;82;27365;-59
2022/05/11 04:44:48;;;;;;;27.13;7.53;;;;;;;11.46;64.69;101452.20;1732638;82;28300;-58
2022/05/11 04:47:19;;;;;;;24.27;7.47;;;;;;;11.53;64.58;101456.61;1732925;81;25796;-59
2022/05/11 04:49:46;;;;;;;21.57;8.65;;;;;;;11.56;64.39;101450.47;1733023;82;26145;-58
2022/05/11 04:52:17;;;;;;;26.45;8.40;;;;;;;11.65;64.41;101452.04;1733286;82;25804;-60
2022/05/11 04:54:50;;;;;;;28.87;8.58;;;;;;;11.68;64.03;101451.80;1732997;82;25729;-59
2022/05/11 04:57:19;;;;;;;26.48;7.53;;;;;;;11.71;64.26;101455.56;1733358;82;27448;-59
2022/05/11 04:59:46;;;;;;;16.77;8.00;;;;;;;11.73;64.04;101453.61;1732956;82;25791;-59
2022/05/11 05:02:18;;;;;;;18.60;8.58;;;;;;;11.75;63.96;101454.34;1733280;82;25492;-59
2022/05/11 05:04:45;;;;;;;14.63;7.22;;;;;;;11.76;63.71;101454.71;1733152;82;25782;-59
2022/05/11 05:07:12;;;;;;;17.02;7.17;;;;;;;11.79;63.44;101458.48;1734660;82;25721;-59
2022/05/11 05:09:41;;;;;;;15.38;7.22;;;;;;;11.86;63.23;101457.02;1735222;82;27562;-59
2022/05/11 05:12:11;;;;;;;13.75;7.35;;;;;;;11.91;62.96;101456.63;1735165;82;25737;-59
2022/05/11 05:14:39;;;;;;;15.68;7.08;;;;;;;11.93;62.68;101461.38;1735227;82;25901;-59
2022/05/11 05:17:11;;;;;;;18.50;6.47;;;;;;;11.97;62.76;101457.48;1735404;82;25983;-59
2022/05/11 05:19:41;;;;;;;19.52;6.85;;;;;;;11.99;62.20;101455.52;1735171;82;25916;-59
2022/05/11 05:22:08;;;;;;;16.93;7.12;;;;;;;12.06;61.94;101457.19;1735299;82;27388;-59
2022/05/11 05:24:36;;;;;;;24.12;7.28;;;;;;;12.11;61.69;101456.33;1734996;82;25809;-60
2022/05/11 05:27:04;;;;;;;27.32;7.12;;;;;;;12.13;61.40;101452.14;1735042;82;25725;-59
2022/05/11 05:32:17;;;;;;;21.75;7.28;;;;;;;12.21;60.85;101454.56;1735476;82;25733;-59
2022/05/11 05:34:44;;;;;;;27.30;6.80;;;;;;;12.29;60.91;101442.27;1735079;82;27538;-59
2022/05/11 05:37:13;;;;;;;14.55;5.47;;;;;;;12.31;60.48;101451.09;1734974;82;26046;-59
2022/05/11 05:39:40;;;;;;;16.17;7.37;;;;;;;12.33;60.16;101444.56;1735244;82;25837;-60
2022/05/11 05:42:09;;;;;;;17.48;6.65;;;;;;;12.41;60.39;101450.67;1739278;82;25865;-60
2022/05/11 05:44:38;;;;;;;24.15;8.10;;;;;;;12.48;60.07;101450.97;1743364;82;26017;-59
2022/05/11 05:47:07;;;;;;;23.45;7.58;;;;;;;12.57;60.04;101453.39;1737333;82;27450;-59
2022/05/11 05:49:35;;;;;;;14.00;6.50;;;;;;;12.66;59.41;101452.59;1735383;82;25777;-59
2022/05/11 05:52:04;;;;;;;14.05;5.15;;;;;;;12.72;59.03;101448.00;1747699;81;26223;-60
2022/05/11 05:54:36;;;;;;;11.35;5.22;;;;;;;12.80;57.60;101461.68;1749927;81;25755;-59
2022/05/11 05:57:04;;;;;;;14.90;5.58;;;;;;;12.85;57.20;101458.58;1738119;81;25755;-59
2022/05/11 05:59:31;;;;;;;24.95;7.28;;;;;;;12.92;57.51;101457.05;1739449;81;27473;-59
2022/05/11 06:01:58;;;;;;;18.98;5.90;;;;;;;13.00;57.67;101468.53;1740352;81;26124;-59
2022/05/11 06:04:24;;;;;;;22.65;6.00;;;;;;;13.06;56.98;101463.09;1740803;81;25798;-59
2022/05/11 06:06:51;;;;;;;21.25;6.20;;;;;;;13.13;57.20;101462.90;1726611;81;25815;-59
2022/05/11 06:09:18;;;;;;;19.90;5.53;;;;;;;13.18;56.03;101462.49;1734223;81;26479;-59
2022/05/11 06:11:45;;;;;;;18.32;6.20;;;;;;;13.23;54.68;101464.27;1731063;81;28448;-59
2022/05/11 06:14:12;;;;;;;12.37;5.53;;;;;;;13.24;54.10;101462.81;1741979;81;25831;-59
2022/05/11 06:16:39;;;;;;;9.25;5.25;;;;;;;13.31;53.88;101468.53;1728906;81;25835;-59
2022/05/11 06:19:06;;;;;;;13.43;4.78;;;;;;;13.37;53.81;101467.09;1727393;81;25971;-59
2022/05/11 06:21:34;;;;;;;15.23;4.75;;;;;;;13.47;53.40;101472.07;1737520;81;25442;-59
2022/05/11 06:24:01;;;;;;;14.63;5.58;;;;;;;13.55;53.85;101471.39;1729944;81;27466;-59
2022/05/11 06:26:28;;;;;;;14.75;5.78;;;;;;;13.61;52.93;101481.16;1759204;81;25689;-59
2022/05/11 06:28:56;;;;;;;11.85;4.78;;;;;;;13.69;53.20;101476.91;1759343;81;25687;-59
2022/05/11 06:31:23;;;;;;;13.98;4.40;;;;;;;13.73;52.47;101479.19;1747305;81;25799;-59
2022/05/11 06:33:53;;;;;;;11.57;4.95;;;;;;;13.81;52.60;101476.28;1746405;81;25744;-59
2022/05/11 06:36:23;;;;;;;12.30;4.67;;;;;;;13.86;51.97;101478.05;1745830;81;27497;-59
2022/05/11 06:38:52;;;;;;;25.80;4.55;;;;;;;13.96;51.33;101477.56;1745688;81;25807;-59
2022/05/11 06:41:23;;;;;;;18.32;5.28;;;;;;;14.04;51.43;101470.95;1743383;82;25728;-58
2022/05/11 06:43:51;;;;;;;17.02;5.22;;;;;;;14.13;51.44;101471.95;1738335;82;25814;-59
2022/05/11 06:46:19;;;;;;;13.10;5.60;;;;;;;14.22;51.11;101473.81;1738856;81;25933;-59
2022/05/11 06:48:47;;;;;;;13.80;4.40;;;;;;;14.28;49.64;101469.68;1740019;82;27372;-60
2022/05/11 06:51:17;;;;;;;13.20;4.33;;;;;;;14.35;48.34;101469.45;1747098;81;26220;-59
2022/05/11 06:59:21;;;;;;;17.27;4.95;;;;;;;14.64;47.71;101464.50;1745620;82;25883;-59
2022/05/11 07:01:54;;;;;;;16.93;4.07;;;;;;;14.77;46.64;101466.05;1736549;81;27476;-60
2022/05/11 07:04:25;;;;;;;13.55;4.42;;;;;;;14.84;43.82;101467.16;1701031;81;25685;-58
2022/05/11 07:06:54;;;;;;;14.58;4.17;;;;;;;14.95;44.95;101464.28;1735872;81;25539;-58
2022/05/11 07:09:24;;;;;;;18.70;4.53;;;;;;;15.07;45.48;101465.46;1713487;82;25801;-58
2022/05/11 07:14:38;;;;;;;9.20;4.72;;;;;;;15.28;43.70;101459.31;1712916;82;27500;-59
2022/05/11 07:17:06;;;;;;;14.87;4.42;;;;;;;15.41;43.83;101458.96;1683575;84;25802;-58
2022/05/11 07:19:33;;;;;;;17.70;4.58;;;;;;;15.51;43.59;101458.05;1683454;83;25827;-59
2022/05/11 07:22:00;;;;;;;8.18;4.17;;;;;;;15.57;42.06;101456.08;1684174;85;26380;-58
2022/05/11 07:24:27;;;;;;;11.57;4.42;;;;;;;15.69;42.42;101449.41;1684687;84;26054;-58
2022/05/11 07:26:57;;;;;;;10.03;3.80;;;;;;;15.79;42.14;101448.00;1691377;84;27480;-58
2022/05/11 07:29:24;;;;;;;14.43;4.72;;;;;;;15.88;42.23;101446.24;1723521;83;25945;-58
2022/05/11 07:31:50;;;;;;;14.10;3.50;;;;;;;15.98;41.64;101445.66;1722926;82;25756;-59
2022/05/11 07:34:17;;;;;;;16.50;3.33;;;;;;;16.08;41.13;101446.44;1717260;81;26597;-58
2022/05/11 07:36:44;;;;;;;9.48;3.35;;;;;;;16.19;40.65;101439.91;1753945;81;25482;-59
2022/05/11 07:39:11;;;;;;;8.38;3.37;;;;;;;16.29;40.96;101446.63;1753294;81;27642;-58
2022/05/11 07:41:38;;;;;;;16.97;4.17;;;;;;;16.38;40.34;101438.89;1737641;82;25725;-58
2022/05/11 07:44:05;;;;;;;7.67;3.45;;;;;;;16.51;40.92;101434.89;1713347;82;25713;-59
2022/05/11 07:46:35;;;;;;;25.55;4.37;;;;;;;16.63;39.23;101435.50;1713091;82;25793;-58
2022/05/11 07:49:06;;;;;;;13.45;3.42;;;;;;;16.73;39.11;101430.30;1713536;83;25778;-59
2022/05/11 07:51:35;;;;;;;9.13;3.47;;;;;;;16.83;39.44;101429.33;1732355;81;27581;-58
2022/05/11 07:54:04;;;;;;;11.93;3.33;;;;;;;16.90;39.92;101428.50;1742882;81;25774;-58
2022/05/11 08:02:02;;;;;;;21.48;4.40;;;;;;;17.25;38.26;101423.61;1748804;82;25758;-58
2022/05/11 08:04:28;;;;;;;9.38;3.22;;;;;;;17.36;38.18;101421.44;1746163;81;28446;-59
2022/05/11 08:06:56;;;;;;;11.53;3.17;;;;;;;17.43;38.58;101418.05;1720856;82;25443;-58
2022/05/11 08:09:23;;;;;;;17.82;3.40;;;;;;;17.50;37.00;101413.14;1739226;81;25490;-59
2022/05/11 08:11:52;;;;;;;7.33;2.40;;;;;;;17.62;37.55;101410.09;1738767;81;27924;-59
2022/05/11 08:14:18;;;;;;;5.55;2.27;;;;;;;17.75;35.20;101415.91;1658111;85;25757;-59
2022/05/11 08:16:51;;;;;;;9.48;3.12;;;;;;;17.86;34.97;101412.52;1720475;83;27489;-59
2022/05/11 08:19:14;;;;;;;6.50;2.80;;;;;;;17.94;35.24;101415.25;1726857;80;25815;-59
2022/05/11 08:21:41;;;;;;;12.60;2.70;;;;;;;18.06;35.38;101411.21;1747216;80;25808;-59
2022/05/11 08:24:08;;;;;;;10.30;3.00;;;;;;;18.16;35.98;101406.94;1749883;80;25807;-59
2022/05/11 08:26:35;;;;;;;15.98;3.92;;;;;;;18.24;35.31;101404.21;1768318;80;25924;-58
2022/05/11 08:29:02;;;;;;;8.03;2.42;;;;;;;18.36;35.02;101399.25;1763507;80;27488;-59
2022/05/11 08:34:13;;;;;;;9.13;2.83;;;;;;;18.66;35.03;101399.55;1752353;80;25791;-59
2022/05/11 08:36:41;;;;;;;12.45;3.37;;;;;;;18.82;34.62;101394.57;1778318;80;26847;-59
2022/05/11 08:39:08;;;;;;;4.60;2.35;;;;;;;18.93;33.65;101393.36;1750101;80;25705;-59
2022/05/11 08:41:50;;;;;;;6.00;1.85;;;;;;;19.10;33.75;101387.30;1765457;80;28356;-59
2022/05/11 08:44:22;;;;;;;8.87;2.20;;;;;;;19.31;31.78;101387.20;1772694;80;25725;-59
2022/05/11 08:47:16;;;;;;;3.25;1.80;;;;;;;19.51;30.67;101393.05;1776737;80;25769;-58
2022/05/11 08:49:53;;;;;;;5.85;1.92;;;;;;;19.67;29.38;101382.55;1752243;80;25936;-59
2022/05/11 08:52:50;;;;;;;6.12;1.75;;;;;;;19.83;30.62;101374.23;1760029;80;25816;-59
2022/05/11 08:55:51;;;;;;;9.83;2.45;;;;;;;20.04;27.62;101364.54;1778631;80;27471;-59
2022/05/11 08:58:28;;;;;;;4.87;1.70;;;;;;;20.29;28.22;101367.90;1778636;80;26100;-58
2022/05/11 09:00:57;;;;;;;9.88;2.02;;;;;;;20.56;29.37;101367.43;1777402;80;25468;-59
2022/05/11 09:03:41;;;;;;;9.68;2.00;;;;;;;20.76;28.29;101367.23;1778831;80;25722;-59
2022/05/11 09:06:19;;;;;;;10.98;1.95;;;;;;;20.94;27.97;101365.99;1778684;80;25873;-58
2022/05/11 09:08:47;;;;;;;4.35;1.70;;;;;;;21.14;27.30;101359.39;1763169;80;28436;-58
2022/05/11 09:11:25;;;;;;;6.55;1.85;;;;;;;21.43;28.06;101363.93;1759174;80;25734;-59
2022/05/11 09:13:52;;;;;;;4.97;1.67;;;;;;;21.76;26.12;101357.66;1759094;81;25774;-58
2022/05/11 09:16:27;;;;;;;2.62;1.20;;;;;;;22.04;24.15;101359.92;1759156;80;25783;-59
2022/05/11 09:18:56;;;;;;;4.75;1.45;;;;;;;22.34;23.29;101358.87;1757876;80;26157;-58
2022/05/11 09:21:33;;;;;;;10.65;2.42;;;;;;;22.60;23.83;101361.49;1759377;80;27637;-59
2022/05/11 09:24:11;;;;;;;6.83;2.98;;;;;;;23.02;23.30;101353.26;1765973;80;25741;-58
2022/05/11 09:26:44;;;;;;;6.78;2.30;;;;;;;23.51;22.99;101347.20;1675153;81;25868;-58
2022/05/11 09:29:24;;;;;;;8.80;1.65;;;;;;;24.07;22.78;101345.45;1732407;82;25814;-58
2022/05/11 09:31:52;;;;;;;7.72;1.40;;;;;;;24.60;21.89;101346.95;1711355;82;25819;-58
2022/05/11 09:34:35;;;;;;;6.10;2.05;;;;;;;24.96;21.53;101350.59;1736118;82;27596;-58
2022/05/11 09:37:08;;;;;;;9.80;1.72;;;;;;;25.29;20.74;101343.20;1737947;82;35393;-58
2022/05/11 09:39:35;;;;;;;7.47;1.67;;;;;;;25.58;21.23;101341.80;1736060;82;25704;-58
2022/05/11 09:42:19;;;;;;;9.40;1.70;;;;;;;26.02;20.43;101336.89;1726245;82;26699;-59
2022/05/11 09:44:49;;;;;;;7.75;1.90;;;;;;;26.20;19.84;101338.34;1740287;81;25736;-58
2022/05/11 09:47:33;;;;;;;8.63;1.42;;;;;;;26.46;20.09;101335.52;1738365;79;27477;-58
2022/05/11 09:50:21;;;;;;;7.80;1.52;;;;;;;26.79;20.16;101340.69;1734864;82;26411;-59
2022/05/11 09:52:49;;;;;;;7.50;1.27;;;;;;;27.20;19.52;101334.66;1759144;80;25675;-59
2022/05/11 09:55:22;;;;;;;8.68;1.50;;;;;;;27.42;18.25;101330.83;1759602;80;25788;-58
2022/05/11 09:57:57;;;;;;;10.28;2.10;;;;;;;27.56;17.47;101325.97;1759184;81;25481;-59
2022/05/11 10:00:29;;;;;;;6.70;1.85;;;;;;;27.57;18.20;101327.11;1758513;81;27376;-58
2022/05/11 10:02:58;;;;;;;10.03;2.50;;;;;;;27.97;18.40;101329.75;1753888;81;25557;-59
2022/05/11 10:05:47;;;;;;;6.37;1.42;;;;;;;28.22;18.58;101341.14;1759429;80;25422;-59
2022/05/11 10:08:33;;;;;;;4.72;1.75;;;;;;;28.00;17.94;101333.43;1763263;80;26460;-59
2022/05/11 10:11:23;;;;;;;7.67;1.90;;;;;;;27.84;17.23;101334.14;1770150;80;25799;-58
2022/05/11 10:21:50;;;;;;;10.85;1.70;;;;;;;27.91;17.02;101323.80;1770066;81;27480;-58
2022/05/11 10:22:28;;;;;;;5.17;1.27;;;;;;;27.91;16.22;101326.56;1770185;81;25842;-59
2022/05/11 10:25:10;;;;;;;4.95;1.17;;;;;;;28.62;17.48;101322.40;1770149;81;25747;-59
2022/05/11 10:28:09;;;;;;;7.78;1.42;;;;;;;29.60;16.80;101313.77;1770223;80;27448;-58
2022/05/11 10:30:59;;;;;;;10.30;1.40;;;;;;;30.17;15.29;101318.86;1770129;81;25782;-59
2022/05/11 10:33:43;;;;;;;5.35;1.30;;;;;;;30.51;16.42;101318.24;1757691;80;25753;-59
2022/05/11 10:36:36;;;;;;;6.47;1.47;;;;;;;31.10;16.31;101329.80;1754106;81;25998;-59
2022/05/11 10:39:07;;;;;;;;;;;;;;;31.58;15.57;101316.94;1756701;81;25715;-59
2022/05/11 10:41:51;;;;;;;9.60;2.02;;;;;;;31.94;13.73;101317.25;1751150;81;27650;-59
2022/05/11 10:44:55;;;;;;;5.62;1.62;;;;;;;31.44;15.22;101315.72;1743044;81;25736;-59
2022/05/11 10:47:43;;;;;;;4.30;1.50;;;;;;;31.82;14.70;101313.84;1752656;81;25804;-60
2022/05/11 10:50:54;;;;;;;5.03;1.90;;;;;;;32.20;14.88;101305.46;1753799;81;25744;-59
2022/05/11 10:53:32;;;;;;;3.92;1.47;;;;;;;32.61;13.96;101308.47;1752402;81;25787;-59
2022/05/11 10:56:17;;;;;;;11.08;1.90;;;;;;;32.70;14.41;101307.41;1754253;81;28027;-59
2022/05/11 10:59:12;;;;;;;10.20;1.62;;;;;;;32.93;14.34;101302.77;1753682;81;25867;-59
2022/05/11 11:02:18;;;;;;;9.68;2.02;;;;;;;33.05;14.41;101298.33;1753903;81;25451;-59
2022/05/11 11:04:54;;;;;;;6.80;2.10;;;;;;;33.44;14.30;101297.58;1753218;81;25802;-60
2022/05/11 11:07:58;;;;;;;3.80;1.45;;;;;;;32.83;13.78;101292.98;1751276;81;25774;-59
2022/05/11 11:10:31;;;;;;;12.45;1.98;;;;;;;31.83;13.64;101298.27;1753991;81;27507;-59
2022/05/11 11:13:28;;;;;;;5.95;1.60;;;;;;;31.49;14.83;101294.36;1753492;81;25848;-60
2022/05/11 11:15:57;;;;;;;3.05;1.20;;;;;;;31.53;15.03;101296.88;1753942;81;25743;-59
2022/05/11 11:18:35;;;;;;;11.18;1.95;;;;;;;31.41;14.66;101294.84;1754339;81;25885;-60
2022/05/11 11:21:04;;;;;;;5.17;1.65;;;;;;;31.41;14.66;101293.99;1754134;81;25712;-59
2022/05/11 11:23:36;;;;;;;7.08;1.40;;;;;;;31.12;15.16;101289.56;1722754;81;27669;-60
2022/05/11 11:26:12;;;;;;;5.53;1.47;;;;;;;31.05;15.01;101291.69;1753859;81;25676;-59
2022/05/11 11:28:47;;;;;;;4.70;1.75;;;;;;;31.37;15.41;101293.15;1754312;81;25818;-59
2022/05/11 11:31:18;;;;;;;3.42;1.32;;;;;;;31.95;14.97;101295.86;1753753;81;25961;-60
2022/05/11 11:34:08;;;;;;;12.13;2.40;;;;;;;32.56;14.08;101291.75;1753581;81;25787;-59
2022/05/11 11:36:40;;;;;;;7.65;2.20;;;;;;;32.90;13.50;101282.97;1753888;81;27498;-60
2022/05/11 11:39:14;;;;;;;4.50;1.30;;;;;;;32.72;13.93;101280.94;1754338;81;25731;-59
2022/05/11 11:41:47;;;;;;;10.53;3.98;;;;;;;32.99;14.13;101283.28;1754199;81;25878;-59
2022/05/11 11:44:31;;;;;;;5.10;1.40;;;;;;;33.43;13.71;101276.38;1754330;81;26761;-59
2022/05/11 11:46:59;;;;;;;22.58;9.98;;;;;;;33.61;13.43;101266.63;1775515;80;25835;-59
2022/05/11 11:49:34;;;;;;;48.28;29.07;;;;;;;33.98;13.38;101269.09;1785963;80;28495;-59
2022/05/11 11:52:05;;;;;;;27.67;12.13;;;;;;;34.11;13.21;101262.66;1786274;79;25707;-59
2022/05/11 11:54:40;;;;;;;12.58;5.70;;;;;;;34.49;13.34;101265.88;1786323;80;25639;-59
2022/05/11 11:57:24;;;;;;;11.10;5.05;;;;;;;34.99;12.92;101263.69;1786198;80;25780;-59
2022/05/11 12:00:22;;;;;;;27.52;15.23;;;;;;;35.53;12.35;101259.93;1786250;80;25807;-59
2022/05/11 12:02:48;;;;;;;10.03;3.40;;;;;;;35.74;12.31;101261.11;1786317;79;27522;-59
2022/05/11 12:05:43;;;;;;;17.35;8.60;;;;;;;35.63;12.11;101257.59;1786098;80;25738;-59
2022/05/11 12:16:58;;;;;;;3.47;1.70;;;;;;;37.90;11.11;101250.80;1781098;80;27554;-60
2022/05/11 12:19:29;;;;;;;8.65;1.50;;;;;;;38.26;10.87;101246.45;1781209;80;25499;-60